Time;durP1;ratioP1;P1;durP2;ratioP2;P2;SDS_P1;SDS_P2;PMS_P1;PMS_P2;Temp;Humidity;BMP_temperature;BMP_pressure;BME280_temperature;BME280_humidity;BME280_pressure;Samples;Min_cycle;Max_cycle;Signal;HPM_P1;HPM_P2
2022/07/27 00:00:55;;;;;;;5.30;1.05;;;15.70;99.90;;;;;;5027404;28;25054;-64
2022/07/27 00:03:22;;;;;;;4.65;1.23;;;15.70;99.90;;;;;;5025907;28;25172;-66
2022/07/27 00:05:47;;;;;;;6.75;1.23;;;15.70;99.90;;;;;;5027817;28;25163;-63
2022/07/27 00:08:13;;;;;;;5.72;1.05;;;15.80;99.90;;;;;;5027007;28;25061;-65
2022/07/27 00:10:39;;;;;;;4.55;1.38;;;15.80;99.90;;;;;;5023518;28;25118;-65
2022/07/27 00:13:05;;;;;;;2.30;1.02;;;15.80;99.90;;;;;;5037899;28;25068;-65
2022/07/27 00:15:32;;;;;;;3.38;0.98;;;15.80;99.90;;;;;;5027669;28;25075;-65
2022/07/27 00:17:59;;;;;;;2.70;1.10;;;15.80;99.90;;;;;;5029272;28;25105;-68
2022/07/27 00:20:29;;;;;;;2.95;1.30;;;15.80;99.90;;;;;;5026681;28;25151;-65
2022/07/27 00:22:55;;;;;;;7.85;1.52;;;15.70;99.90;;;;;;5026217;28;25082;-62
2022/07/27 00:25:21;;;;;;;3.40;1.52;;;15.70;99.90;;;;;;5028071;28;25107;-67
2022/07/27 00:27:46;;;;;;;3.00;1.08;;;15.70;99.90;;;;;;5030516;28;25057;-65
2022/07/27 00:30:12;;;;;;;2.97;1.15;;;15.70;99.90;;;;;;5029418;28;25152;-65
2022/07/27 00:32:38;;;;;;;4.90;1.42;;;15.70;99.90;;;;;;5033118;28;25058;-65
2022/07/27 00:35:04;;;;;;;3.50;1.15;;;15.70;99.90;;;;;;5025118;28;25073;-65
2022/07/27 00:37:29;;;;;;;3.10;1.27;;;15.70;99.90;;;;;;5025794;28;25082;-65
2022/07/27 00:39:55;;;;;;;4.38;1.05;;;15.70;99.90;;;;;;5027686;28;25137;-66
2022/07/27 00:42:26;;;;;;;4.70;1.10;;;15.70;99.90;;;;;;5024166;28;25076;-65
2022/07/27 00:44:53;;;;;;;3.65;1.52;;;15.70;99.90;;;;;;5022676;28;25144;-66
2022/07/27 00:47:19;;;;;;;3.97;1.23;;;15.70;99.90;;;;;;5024071;28;25090;-66
2022/07/27 00:49:45;;;;;;;7.07;1.88;;;15.80;99.90;;;;;;5022107;28;25100;-66
2022/07/27 00:52:11;;;;;;;8.70;1.88;;;15.90;99.90;;;;;;5029225;28;25130;-64
2022/07/27 00:54:37;;;;;;;8.32;1.85;;;15.80;99.90;;;;;;5032722;28;25106;-65
2022/07/27 00:57:03;;;;;;;4.18;1.38;;;15.80;99.90;;;;;;5036119;28;25096;-64
2022/07/27 00:59:29;;;;;;;2.92;1.40;;;15.80;99.90;;;;;;5026610;28;25133;-64
2022/07/27 01:01:54;;;;;;;6.15;1.35;;;15.70;99.90;;;;;;5026883;28;25083;-66
2022/07/27 01:04:20;;;;;;;3.08;1.23;;;15.60;99.90;;;;;;5025657;28;25096;-65
2022/07/27 01:06:46;;;;;;;5.85;1.20;;;15.60;99.90;;;;;;5029131;28;25084;-66
2022/07/27 01:11:57;;;;;;;3.17;0.93;;;15.60;99.90;;;;;;5020472;28;25051;-65
2022/07/27 01:14:23;;;;;;;5.47;2.00;;;15.60;99.90;;;;;;5015713;28;25068;-65
2022/07/27 01:16:50;;;;;;;2.17;1.00;;;15.50;99.90;;;;;;5029203;28;25069;-66
2022/07/27 01:19:16;;;;;;;4.50;1.23;;;15.40;99.90;;;;;;5026346;28;25062;-65
2022/07/27 01:21:42;;;;;;;3.08;1.05;;;15.30;99.90;;;;;;5028098;28;25079;-63
2022/07/27 01:24:08;;;;;;;4.35;1.20;;;15.40;99.90;;;;;;5023189;28;25069;-64
2022/07/27 01:26:37;;;;;;;3.70;1.10;;;15.40;99.90;;;;;;5022098;28;25155;-64
2022/07/27 01:29:03;;;;;;;4.80;1.10;;;15.40;99.90;;;;;;5020703;28;25132;-65
2022/07/27 01:31:29;;;;;;;4.47;1.20;;;15.30;99.90;;;;;;5022684;28;25077;-67
2022/07/27 01:33:56;;;;;;;2.55;1.05;;;15.30;99.90;;;;;;5024699;28;25100;-65
2022/07/27 01:36:21;;;;;;;6.80;1.40;;;15.30;99.90;;;;;;5016321;28;25070;-65
2022/07/27 01:38:47;;;;;;;3.50;0.90;;;15.30;99.90;;;;;;5021251;28;25072;-66
2022/07/27 01:41:13;;;;;;;4.15;0.93;;;15.40;99.90;;;;;;5025213;28;25091;-66
2022/07/27 01:43:38;;;;;;;3.65;0.90;;;15.50;99.90;;;;;;5024643;28;25137;-65
2022/07/27 01:46:04;;;;;;;7.38;1.15;;;15.60;99.90;;;;;;5027709;28;25131;-66
2022/07/27 01:48:30;;;;;;;3.63;1.25;;;15.60;99.90;;;;;;5025196;28;25080;-65
2022/07/27 01:50:56;;;;;;;3.70;1.33;;;15.60;99.90;;;;;;5025234;28;25067;-65
2022/07/27 01:53:22;;;;;;;4.25;1.23;;;15.50;99.90;;;;;;5020694;28;25117;-65
2022/07/27 01:55:49;;;;;;;2.55;0.85;;;15.50;99.90;;;;;;5024413;28;25066;-64
2022/07/27 01:58:15;;;;;;;4.35;1.15;;;15.60;99.90;;;;;;5025612;28;25073;-66
2022/07/27 02:00:41;;;;;;;4.10;1.60;;;15.60;99.90;;;;;;5026215;28;25105;-66
2022/07/27 02:03:08;;;;;;;5.80;1.00;;;15.50;99.90;;;;;;5023976;28;25087;-65
2022/07/27 02:05:34;;;;;;;1.67;0.80;;;15.60;99.90;;;;;;5029588;28;25061;-66
2022/07/27 02:08:00;;;;;;;7.05;1.13;;;15.60;99.90;;;;;;5028247;28;25121;-64
2022/07/27 02:10:26;;;;;;;5.35;1.15;;;15.50;99.90;;;;;;5023058;28;25068;-66
2022/07/27 02:12:52;;;;;;;4.72;0.88;;;15.50;99.90;;;;;;5028259;28;25122;-65
2022/07/27 02:15:21;;;;;;;6.40;1.08;;;15.50;99.90;;;;;;5029521;28;25083;-66
2022/07/27 02:17:47;;;;;;;3.67;0.93;;;15.50;99.90;;;;;;5024122;28;25054;-63
2022/07/27 02:20:15;;;;;;;3.85;1.17;;;15.40;99.90;;;;;;5024121;28;25154;-64
2022/07/27 02:22:41;;;;;;;3.53;1.00;;;15.30;99.90;;;;;;5019848;28;25076;-64
2022/07/27 02:25:08;;;;;;;3.00;1.23;;;15.30;99.90;;;;;;5017266;28;25064;-64
2022/07/27 02:27:34;;;;;;;2.65;0.90;;;15.30;99.90;;;;;;5021172;28;25090;-66
2022/07/27 02:29:59;;;;;;;3.55;0.93;;;15.20;99.90;;;;;;5025966;28;25105;-64
2022/07/27 02:32:25;;;;;;;10.85;1.20;;;15.30;99.90;;;;;;5024952;28;25157;-66
2022/07/27 02:34:51;;;;;;;5.75;1.45;;;15.30;99.90;;;;;;5022730;28;25157;-66
2022/07/27 02:37:16;;;;;;;5.75;1.17;;;15.30;99.90;;;;;;5023333;28;25163;-66
2022/07/27 02:39:42;;;;;;;1.77;0.77;;;15.20;99.90;;;;;;5024317;28;25068;-65
2022/07/27 02:42:08;;;;;;;4.70;1.40;;;15.30;99.90;;;;;;5025043;28;25059;-66
2022/07/27 02:44:33;;;;;;;4.07;1.10;;;15.30;99.90;;;;;;5023921;28;25086;-66
2022/07/27 02:46:59;;;;;;;5.10;1.27;;;15.20;99.90;;;;;;5027284;28;25058;-67
2022/07/27 02:49:24;;;;;;;6.95;1.15;;;15.20;99.90;;;;;;5027930;28;25065;-65
2022/07/27 02:51:52;;;;;;;5.63;1.20;;;15.20;99.90;;;;;;5039417;28;25079;-65
2022/07/27 02:54:19;;;;;;;4.32;1.15;;;15.20;99.90;;;;;;5028374;28;25099;-65
2022/07/27 02:56:45;;;;;;;4.55;1.45;;;15.20;99.90;;;;;;5029250;28;25080;-64
2022/07/27 02:59:10;;;;;;;5.32;1.67;;;15.10;99.90;;;;;;5031440;28;25078;-65
2022/07/27 03:01:36;;;;;;;4.35;1.05;;;15.10;99.90;;;;;;5029339;28;25064;-65
2022/07/27 03:04:02;;;;;;;5.80;1.90;;;15.00;99.90;;;;;;5026965;28;25129;-66
2022/07/27 03:06:28;;;;;;;3.47;1.08;;;14.90;99.90;;;;;;5030627;28;25172;-66
2022/07/27 03:08:54;;;;;;;4.45;1.20;;;14.90;99.90;;;;;;5028275;28;25052;-66
2022/07/27 03:11:20;;;;;;;2.13;1.02;;;14.90;99.90;;;;;;5022025;28;25052;-66
2022/07/27 03:13:45;;;;;;;5.53;1.35;;;14.90;99.90;;;;;;5028956;28;25044;-66
2022/07/27 03:16:11;;;;;;;5.82;1.50;;;15.00;99.90;;;;;;5026222;28;25085;-65
2022/07/27 03:18:37;;;;;;;4.97;0.90;;;14.90;99.90;;;;;;5025916;28;25071;-65
2022/07/27 03:21:03;;;;;;;9.32;1.30;;;14.90;99.90;;;;;;5027483;28;25056;-65
2022/07/27 03:23:28;;;;;;;2.72;1.30;;;14.90;99.90;;;;;;5028270;28;25073;-65
2022/07/27 03:25:54;;;;;;;4.43;1.15;;;14.90;99.90;;;;;;5025692;28;25077;-65
2022/07/27 03:28:19;;;;;;;3.88;1.10;;;14.90;99.90;;;;;;5025464;28;25068;-65
2022/07/27 03:30:45;;;;;;;5.22;0.90;;;14.90;99.90;;;;;;5020093;28;25102;-65
2022/07/27 03:33:11;;;;;;;3.15;1.00;;;15.00;99.90;;;;;;5025646;28;25068;-65
2022/07/27 03:35:36;;;;;;;4.75;1.25;;;15.00;99.90;;;;;;5021769;28;25094;-66
2022/07/27 03:38:02;;;;;;;6.43;1.58;;;14.90;99.90;;;;;;5029554;28;25062;-66
2022/07/27 03:40:30;;;;;;;4.00;1.30;;;14.90;99.90;;;;;;5028044;28;25079;-65
2022/07/27 03:42:56;;;;;;;3.15;1.70;;;14.90;99.90;;;;;;5028166;28;25115;-64
2022/07/27 03:45:21;;;;;;;4.82;1.20;;;14.80;99.90;;;;;;5024532;28;25144;-66
2022/07/27 03:47:47;;;;;;;4.93;1.40;;;14.90;99.90;;;;;;5024748;28;25163;-65
2022/07/27 03:50:12;;;;;;;3.15;1.02;;;14.90;99.90;;;;;;5028446;28;25064;-65
2022/07/27 03:52:38;;;;;;;2.63;1.60;;;14.90;99.90;;;;;;5028496;28;25072;-67
2022/07/27 03:55:04;;;;;;;6.18;1.23;;;15.00;99.90;;;;;;5026224;28;25098;-65
2022/07/27 03:57:30;;;;;;;4.20;1.40;;;15.00;99.90;;;;;;5026677;28;25136;-65
2022/07/27 03:59:55;;;;;;;2.25;1.17;;;15.10;99.90;;;;;;5025354;28;25046;-65
2022/07/27 04:02:21;;;;;;;3.47;1.40;;;15.20;99.90;;;;;;5035195;28;25167;-66
2022/07/27 04:04:46;;;;;;;3.47;1.45;;;15.20;99.90;;;;;;5024203;28;25061;-65
2022/07/27 04:07:12;;;;;;;5.22;1.38;;;15.20;99.90;;;;;;5024752;28;25057;-65
2022/07/27 04:09:37;;;;;;;4.70;1.35;;;15.30;99.90;;;;;;5025259;28;25123;-65
2022/07/27 04:12:03;;;;;;;7.15;1.40;;;15.30;99.90;;;;;;5026754;28;25127;-65
2022/07/27 04:14:29;;;;;;;4.90;1.23;;;15.30;99.90;;;;;;5026237;28;25057;-65
2022/07/27 04:16:55;;;;;;;5.75;1.10;;;15.30;99.90;;;;;;5027579;28;25080;-64
2022/07/27 04:19:20;;;;;;;11.77;1.80;;;15.30;99.90;;;;;;5027528;28;25060;-67
2022/07/27 04:21:46;;;;;;;5.35;1.52;;;15.20;99.90;;;;;;5026846;28;25057;-65
2022/07/27 04:24:11;;;;;;;3.63;1.10;;;15.20;99.90;;;;;;5025852;28;25053;-65
2022/07/27 04:26:37;;;;;;;5.18;1.08;;;15.20;99.90;;;;;;5025416;28;25091;-65
2022/07/27 04:29:03;;;;;;;7.88;1.20;;;15.10;99.90;;;;;;5026538;28;25072;-65
2022/07/27 04:31:29;;;;;;;5.30;1.25;;;15.10;99.90;;;;;;5025051;28;25072;-65
2022/07/27 04:33:55;;;;;;;4.35;1.25;;;15.10;99.90;;;;;;5021162;28;25050;-65
2022/07/27 04:36:20;;;;;;;2.47;0.80;;;15.10;99.90;;;;;;5023821;28;25148;-64
2022/07/27 04:38:46;;;;;;;7.03;2.05;;;15.10;99.90;;;;;;5023399;28;25057;-64
2022/07/27 04:41:11;;;;;;;2.92;0.90;;;15.20;99.90;;;;;;5026493;28;25141;-65
2022/07/27 04:43:38;;;;;;;4.80;1.08;;;15.30;99.90;;;;;;5019723;28;25073;-66
2022/07/27 04:46:04;;;;;;;3.80;0.90;;;15.40;99.90;;;;;;5025295;28;25063;-65
2022/07/27 04:48:32;;;;;;;4.85;0.88;;;15.40;99.90;;;;;;5023052;28;25072;-65
2022/07/27 04:50:58;;;;;;;4.60;1.40;;;15.40;99.90;;;;;;5024238;28;25099;-66
2022/07/27 04:53:23;;;;;;;3.72;1.17;;;15.40;99.90;;;;;;5025259;28;25162;-66
2022/07/27 04:55:49;;;;;;;6.22;1.50;;;15.40;99.90;;;;;;5028746;28;25069;-66
2022/07/27 04:58:15;;;;;;;5.10;1.10;;;15.40;99.90;;;;;;5028988;28;25084;-65
2022/07/27 05:00:42;;;;;;;5.43;1.10;;;15.40;99.90;;;;;;5030987;28;25083;-64
2022/07/27 05:03:08;;;;;;;4.32;0.93;;;15.40;99.90;;;;;;5032853;28;25068;-64
2022/07/27 05:05:34;;;;;;;3.05;0.88;;;15.40;99.90;;;;;;5034498;28;25171;-66
2022/07/27 05:07:59;;;;;;;3.33;1.20;;;15.30;99.90;;;;;;5026289;28;25087;-65
2022/07/27 05:10:25;;;;;;;7.10;2.30;;;15.30;99.90;;;;;;5033863;28;25052;-64
2022/07/27 05:12:51;;;;;;;3.22;1.02;;;15.40;99.90;;;;;;5033947;28;25077;-65
2022/07/27 05:15:17;;;;;;;4.05;1.27;;;15.40;99.90;;;;;;5020011;28;25099;-65
2022/07/27 05:17:42;;;;;;;6.50;1.10;;;15.40;99.90;;;;;;5030490;28;25075;-65
2022/07/27 05:20:09;;;;;;;3.28;1.00;;;15.50;99.90;;;;;;5025783;28;25098;-64
2022/07/27 05:22:35;;;;;;;2.00;1.10;;;15.50;99.90;;;;;;5025291;28;25138;-65
2022/07/27 05:25:00;;;;;;;3.88;0.93;;;15.50;99.90;;;;;;5019159;28;25073;-65
2022/07/27 05:27:26;;;;;;;2.28;1.00;;;15.50;99.90;;;;;;5023537;28;25066;-65
2022/07/27 05:29:52;;;;;;;2.70;1.33;;;15.60;99.90;;;;;;5030470;28;25139;-64
2022/07/27 05:32:18;;;;;;;2.55;1.17;;;15.60;99.90;;;;;;5024138;28;25109;-64
2022/07/27 05:34:44;;;;;;;3.08;0.93;;;15.60;99.90;;;;;;5023814;28;25079;-65
2022/07/27 05:37:13;;;;;;;5.57;1.15;;;15.70;99.90;;;;;;5026398;28;25065;-65
2022/07/27 05:39:41;;;;;;;3.90;1.15;;;15.60;99.90;;;;;;5033176;28;25110;-66
2022/07/27 05:42:07;;;;;;;3.58;1.33;;;15.60;99.90;;;;;;5020298;28;25091;-65
2022/07/27 05:44:33;;;;;;;2.70;0.95;;;15.50;99.90;;;;;;5009623;28;25117;-66
2022/07/27 05:46:59;;;;;;;5.32;1.20;;;15.70;99.90;;;;;;5014360;28;25134;-64
2022/07/27 05:49:24;;;;;;;6.05;2.00;;;15.60;99.90;;;;;;5009145;28;25055;-65
2022/07/27 05:51:50;;;;;;;4.47;1.20;;;15.60;99.90;;;;;;5016428;28;25143;-65
2022/07/27 05:54:15;;;;;;;3.40;1.13;;;15.60;99.90;;;;;;5016057;28;25072;-63
2022/07/27 05:56:41;;;;;;;5.00;1.02;;;15.60;99.90;;;;;;5014882;28;25060;-65
2022/07/27 05:59:07;;;;;;;5.00;1.88;;;15.70;99.90;;;;;;5014083;28;25089;-64
2022/07/27 06:01:32;;;;;;;10.38;1.23;;;15.80;99.90;;;;;;5016807;28;25053;-64
2022/07/27 06:03:58;;;;;;;3.55;1.42;;;15.80;99.90;;;;;;5014441;28;25131;-64
2022/07/27 06:09:08;;;;;;;6.63;1.23;;;15.90;99.90;;;;;;5012107;28;25141;-64
2022/07/27 06:11:33;;;;;;;4.95;2.00;;;15.90;99.90;;;;;;5009399;28;25111;-66
2022/07/27 06:13:59;;;;;;;9.40;1.40;;;16.10;99.90;;;;;;5014500;28;25097;-66
2022/07/27 06:16:24;;;;;;;4.82;1.40;;;16.20;99.90;;;;;;5018561;28;25072;-64
2022/07/27 06:18:50;;;;;;;6.35;1.52;;;16.20;99.90;;;;;;5019653;28;25067;-66
2022/07/27 06:21:16;;;;;;;10.93;2.22;;;16.30;99.90;;;;;;5036304;28;25067;-64
2022/07/27 06:23:42;;;;;;;6.35;1.70;;;16.30;99.90;;;;;;5020024;28;25059;-65
2022/07/27 06:26:08;;;;;;;6.65;2.10;;;16.30;99.90;;;;;;5018461;28;25163;-64
2022/07/27 06:28:34;;;;;;;4.72;1.52;;;16.40;99.90;;;;;;5015529;28;25094;-66
2022/07/27 06:30:59;;;;;;;4.82;1.70;;;16.30;99.90;;;;;;5020321;28;25086;-66
2022/07/27 06:33:28;;;;;;;4.85;1.50;;;16.40;99.90;;;;;;5035523;28;25057;-65
2022/07/27 06:35:54;;;;;;;3.70;1.45;;;16.60;99.90;;;;;;5021785;28;25060;-67
2022/07/27 06:38:20;;;;;;;4.95;0.95;;;16.60;99.90;;;;;;5027964;28;25091;-65
2022/07/27 06:40:51;;;;;;;6.32;1.42;;;16.80;99.90;;;;;;5037298;28;25073;-65
2022/07/27 06:43:20;;;;;;;3.83;1.13;;;16.80;99.90;;;;;;5030056;28;25078;-65
2022/07/27 06:45:46;;;;;;;5.55;1.70;;;16.40;99.90;;;;;;5031990;28;25107;-64
2022/07/27 06:48:12;;;;;;;8.43;1.63;;;16.50;99.90;;;;;;5021548;28;25051;-64
2022/07/27 06:50:37;;;;;;;6.55;1.70;;;16.50;99.90;;;;;;5024013;28;25142;-65
2022/07/27 06:53:03;;;;;;;7.88;2.10;;;16.60;99.90;;;;;;5021825;28;25070;-66
2022/07/27 06:55:29;;;;;;;4.75;1.55;;;16.70;99.90;;;;;;5015864;28;25051;-65
2022/07/27 06:57:54;;;;;;;5.32;2.17;;;16.60;99.90;;;;;;5024049;28;25080;-63
2022/07/27 07:00:20;;;;;;;7.28;2.47;;;16.70;99.90;;;;;;5019429;28;25098;-66
2022/07/27 07:02:57;;;;;;;5.57;1.42;;;16.70;99.90;;;;;;5021164;28;25088;-64
2022/07/27 07:05:23;;;;;;;8.77;1.75;;;16.90;99.90;;;;;;5018648;28;25169;-65
2022/07/27 07:07:49;;;;;;;5.13;1.30;;;17.00;99.90;;;;;;5022199;28;25107;-64
2022/07/27 07:10:15;;;;;;;6.68;1.20;;;17.10;99.90;;;;;;5015627;28;25064;-65
2022/07/27 07:12:40;;;;;;;5.60;1.30;;;17.20;99.90;;;;;;5013416;28;25063;-66
2022/07/27 07:15:07;;;;;;;5.68;1.42;;;16.80;99.90;;;;;;5012212;28;25110;-66
2022/07/27 07:17:33;;;;;;;6.25;1.75;;;16.60;99.90;;;;;;5010433;28;25125;-67
2022/07/27 07:19:58;;;;;;;4.78;0.98;;;16.60;99.90;;;;;;5018760;28;25093;-64
2022/07/27 07:22:25;;;;;;;5.47;1.65;;;16.70;99.90;;;;;;5019765;28;25128;-65
2022/07/27 07:24:50;;;;;;;5.40;1.85;;;16.70;99.90;;;;;;5026927;28;25119;-65
2022/07/27 07:27:19;;;;;;;8.15;1.50;;;16.70;99.90;;;;;;5026245;28;25078;-64
2022/07/27 07:29:45;;;;;;;4.03;1.20;;;16.70;99.90;;;;;;5032311;28;25136;-65
2022/07/27 07:32:10;;;;;;;4.78;1.65;;;16.80;99.90;;;;;;5029536;28;25074;-66
2022/07/27 07:34:36;;;;;;;10.52;2.05;;;16.80;99.90;;;;;;5021816;28;25170;-65
2022/07/27 07:37:01;;;;;;;2.83;1.48;;;16.90;99.90;;;;;;5026769;28;25052;-65
2022/07/27 07:39:27;;;;;;;5.28;1.63;;;17.20;99.90;;;;;;5027115;28;25151;-66
2022/07/27 07:41:52;;;;;;;3.10;1.20;;;17.70;99.90;;;;;;5025127;28;25049;-63
2022/07/27 07:44:18;;;;;;;5.20;1.60;;;18.10;99.90;;;;;;5020534;28;25081;-63
2022/07/27 07:46:43;;;;;;;8.45;1.73;;;18.20;99.90;;;;;;5028204;28;25064;-65
2022/07/27 07:49:09;;;;;;;3.75;2.03;;;17.80;99.90;;;;;;5021367;28;25149;-65
2022/07/27 07:51:35;;;;;;;5.38;1.33;;;17.90;99.90;;;;;;5025270;28;25060;-65
2022/07/27 07:54:00;;;;;;;3.88;1.30;;;18.10;99.90;;;;;;5022816;28;25113;-65
2022/07/27 07:56:26;;;;;;;2.67;1.40;;;18.40;99.90;;;;;;5019914;28;25109;-65
2022/07/27 07:58:52;;;;;;;4.18;1.15;;;18.80;99.90;;;;;;5028273;28;25137;-65
2022/07/27 08:01:18;;;;;;;6.00;1.55;;;19.40;99.90;;;;;;5025218;28;25084;-64
2022/07/27 08:03:43;;;;;;;6.03;1.48;;;19.50;99.90;;;;;;5023138;28;25129;-65
2022/07/27 08:06:09;;;;;;;5.10;1.65;;;19.50;99.90;;;;;;5023443;28;25184;-68
2022/07/27 08:08:34;;;;;;;6.80;1.27;;;18.70;99.90;;;;;;5020036;28;25143;-65
2022/07/27 08:11:00;;;;;;;3.72;1.23;;;17.90;99.90;;;;;;5023380;28;25103;-69
2022/07/27 08:13:26;;;;;;;10.73;1.67;;;17.80;99.90;;;;;;5027875;28;25106;-66
2022/07/27 08:15:53;;;;;;;7.32;1.83;;;18.00;99.90;;;;;;5023905;28;25089;-65
2022/07/27 08:18:19;;;;;;;6.30;1.67;;;17.70;99.90;;;;;;5024224;28;25084;-65
2022/07/27 08:20:45;;;;;;;8.02;1.50;;;17.50;99.90;;;;;;5025418;28;25062;-64
2022/07/27 08:23:11;;;;;;;6.20;1.50;;;17.40;99.90;;;;;;5020756;28;25070;-66
2022/07/27 08:25:37;;;;;;;4.07;1.30;;;17.30;99.90;;;;;;5019961;28;25044;-65
2022/07/27 08:28:04;;;;;;;3.88;1.42;;;17.30;99.90;;;;;;5029242;28;25133;-65
2022/07/27 08:30:30;;;;;;;5.07;1.65;;;17.20;99.90;;;;;;5023132;28;25108;-64
2022/07/27 08:32:58;;;;;;;4.65;1.45;;;17.30;99.90;;;;;;5024145;28;25056;-65
2022/07/27 08:35:25;;;;;;;3.65;1.38;;;17.50;99.90;;;;;;5028344;28;25053;-65
2022/07/27 08:37:51;;;;;;;2.78;1.42;;;17.90;99.90;;;;;;5027393;28;25066;-66
2022/07/27 08:40:17;;;;;;;5.70;1.20;;;18.50;99.90;;;;;;5020555;28;25075;-66
2022/07/27 08:42:42;;;;;;;5.53;1.40;;;19.20;99.90;;;;;;5017741;28;25084;-65
2022/07/27 08:45:19;;;;;;;4.47;1.30;;;19.20;99.90;;;;;;5020725;28;25068;-65
2022/07/27 08:47:45;;;;;;;4.97;1.63;;;19.30;99.90;;;;;;5021717;28;25094;-65
2022/07/27 08:50:23;;;;;;;4.53;1.40;;;19.80;99.90;;;;;;5026359;28;25108;-65
2022/07/27 08:53:02;;;;;;;3.60;1.33;;;20.00;99.90;;;;;;5027317;28;25097;-64
2022/07/27 08:55:32;;;;;;;3.50;1.30;;;18.80;99.90;;;;;;5024627;28;25104;-65
2022/07/27 08:57:58;;;;;;;4.55;1.05;;;18.40;99.90;;;;;;5019253;28;25162;-65
2022/07/27 09:00:25;;;;;;;2.28;1.20;;;18.50;99.90;;;;;;5023316;28;25067;-64
2022/07/27 09:02:51;;;;;;;4.97;1.13;;;18.90;99.90;;;;;;5032691;28;25070;-65
2022/07/27 09:05:17;;;;;;;3.72;1.20;;;19.20;99.90;;;;;;5018802;28;25062;-65
2022/07/27 09:07:42;;;;;;;5.35;0.90;;;19.60;99.90;;;;;;5023071;28;25060;-65
2022/07/27 09:10:09;;;;;;;4.55;1.00;;;20.00;99.90;;;;;;5024800;28;25059;-64
2022/07/27 09:12:34;;;;;;;5.03;1.33;;;20.60;99.90;;;;;;5012788;28;25072;-62
2022/07/27 09:15:20;;;;;;;7.40;1.45;;;20.50;99.90;;;;;;5018168;28;25054;-64
2022/07/27 09:17:46;;;;;;;4.57;1.73;;;20.20;99.90;;;;;;5026724;28;25163;-64
2022/07/27 09:20:17;;;;;;;2.53;0.93;;;20.30;99.90;;;;;;5022164;28;25087;-64
2022/07/27 09:22:49;;;;;;;3.33;1.20;;;20.20;99.90;;;;;;5023866;28;25083;-66
2022/07/27 09:25:20;;;;;;;3.30;1.17;;;19.60;99.90;;;;;;5029695;28;25113;-66
2022/07/27 09:27:48;;;;;;;4.00;1.15;;;19.40;99.90;;;;;;5025834;28;25055;-64
2022/07/27 09:30:16;;;;;;;2.92;0.98;;;19.90;99.90;;;;;;5028387;28;25145;-66
2022/07/27 09:32:56;;;;;;;1.67;0.80;;;20.30;99.90;;;;;;5021553;28;25072;-64
2022/07/27 09:35:32;;;;;;;5.50;1.17;;;20.40;96.40;;;;;;5019500;28;25149;-64
2022/07/27 09:38:18;;;;;;;3.92;1.30;;;20.60;94.80;;;;;;5017479;28;25135;-68
2022/07/27 09:40:45;;;;;;;4.82;0.98;;;20.80;91.80;;;;;;5019451;28;25105;-66
2022/07/27 09:43:12;;;;;;;3.00;0.90;;;20.30;90.60;;;;;;5024746;28;25073;-64
2022/07/27 09:45:42;;;;;;;2.90;0.80;;;20.70;82.60;;;;;;5028872;28;25057;-66
2022/07/27 09:48:19;;;;;;;3.25;0.73;;;20.00;77.40;;;;;;5023526;28;25086;-64
2022/07/27 09:50:57;;;;;;;4.22;1.90;;;20.40;80.40;;;;;;5034684;28;25092;-67
2022/07/27 09:53:25;;;;;;;6.05;1.00;;;20.40;81.30;;;;;;5027803;28;25050;-65
2022/07/27 09:55:59;;;;;;;3.85;1.10;;;19.80;88.60;;;;;;5025968;28;25060;-65
2022/07/27 09:58:49;;;;;;;3.42;1.20;;;19.60;99.90;;;;;;5025834;28;25121;-66
2022/07/27 10:01:23;;;;;;;3.17;0.80;;;19.20;99.90;;;;;;5025962;28;25050;-65
2022/07/27 10:03:52;;;;;;;3.50;1.60;;;19.20;99.90;;;;;;5021838;28;25095;-66
2022/07/27 10:06:18;;;;;;;4.20;1.90;;;19.60;99.90;;;;;;5026287;28;25081;-67
2022/07/27 10:08:46;;;;;;;5.70;1.42;;;19.60;99.90;;;;;;5030286;28;25093;-64
2022/07/27 10:11:13;;;;;;;4.10;1.00;;;19.50;99.90;;;;;;5026121;28;25073;-66
2022/07/27 10:13:39;;;;;;;5.85;1.17;;;19.60;99.90;;;;;;5032784;28;25134;-65
2022/07/27 10:16:06;;;;;;;5.15;1.50;;;19.70;99.90;;;;;;5037404;28;25057;-67
2022/07/27 10:18:46;;;;;;;5.93;1.33;;;19.80;99.90;;;;;;5023350;28;25074;-63
2022/07/27 10:21:12;;;;;;;3.42;1.20;;;19.50;99.90;;;;;;5029125;28;25073;-65
2022/07/27 10:23:38;;;;;;;3.25;1.20;;;19.20;99.90;;;;;;5018870;28;25064;-67
2022/07/27 10:26:19;;;;;;;5.97;1.20;;;19.30;99.90;;;;;;5030874;28;25065;-66
2022/07/27 10:28:58;;;;;;;5.85;1.20;;;20.10;99.90;;;;;;5025413;28;25057;-66
2022/07/27 10:31:35;;;;;;;4.57;1.50;;;21.00;99.90;;;;;;5023908;28;25072;-69
2022/07/27 10:34:03;;;;;;;2.17;1.10;;;21.30;97.10;;;;;;5025808;28;25056;-67
2022/07/27 10:36:28;;;;;;;8.93;1.60;;;21.30;96.50;;;;;;5024794;28;25066;-66
2022/07/27 10:38:56;;;;;;;3.30;1.23;;;21.20;96.10;;;;;;5026075;28;25049;-67
2022/07/27 10:41:40;;;;;;;2.20;1.27;;;20.90;93.90;;;;;;5030178;28;25057;-67
2022/07/27 10:44:19;;;;;;;3.72;0.90;;;21.00;94.50;;;;;;5034046;28;25072;-67
2022/07/27 10:47:01;;;;;;;10.68;1.50;;;21.70;90.80;;;;;;5025325;28;25071;-66
2022/07/27 10:49:30;;;;;;;1.67;1.10;;;22.30;87.70;;;;;;5034411;28;25054;-67
2022/07/27 10:51:58;;;;;;;2.33;1.00;;;22.10;84.70;;;;;;5036072;28;25120;-67
2022/07/27 10:54:37;;;;;;;4.43;1.30;;;21.90;85.50;;;;;;5033933;28;25076;-67
2022/07/27 10:57:05;;;;;;;3.38;1.05;;;21.40;89.70;;;;;;5015635;28;25074;-67
2022/07/27 10:59:42;;;;;;;1.83;1.00;;;21.60;81.50;;;;;;5023101;28;25081;-67
2022/07/27 11:02:13;;;;;;;2.45;1.10;;;21.10;72.10;;;;;;5036185;28;25117;-66
2022/07/27 11:04:51;;;;;;;5.68;1.52;;;20.70;80.70;;;;;;5029232;28;25090;-66
2022/07/27 11:07:19;;;;;;;5.75;1.58;;;20.80;80.30;;;;;;5022611;28;25100;-65
2022/07/27 11:09:48;;;;;;;8.40;1.42;;;20.20;82.70;;;;;;5028636;28;25057;-66
2022/07/27 11:12:16;;;;;;;5.00;1.13;;;20.10;92.30;;;;;;5028751;28;25051;-66
2022/07/27 11:14:51;;;;;;;3.97;1.38;;;20.70;92.40;;;;;;5032009;28;25139;-66
2022/07/27 11:17:18;;;;;;;5.53;1.30;;;21.40;83.30;;;;;;5022911;28;25146;-66
2022/07/27 11:19:50;;;;;;;4.80;1.27;;;21.50;76.30;;;;;;5026996;28;25104;-67
2022/07/27 11:22:15;;;;;;;7.15;1.33;;;20.80;76.60;;;;;;5028612;28;25048;-66
2022/07/27 11:24:41;;;;;;;7.05;1.33;;;20.10;88.50;;;;;;5025334;28;25068;-66
2022/07/27 11:27:10;;;;;;;3.92;1.27;;;19.80;99.90;;;;;;5026267;28;25117;-69
2022/07/27 11:29:36;;;;;;;5.22;1.42;;;19.90;99.90;;;;;;5024807;28;25071;-67
2022/07/27 11:32:02;;;;;;;2.90;1.33;;;19.90;99.90;;;;;;5022545;28;25133;-67
2022/07/27 11:34:29;;;;;;;3.53;1.25;;;19.60;99.90;;;;;;5022512;28;25165;-66
2022/07/27 11:36:57;;;;;;;7.35;1.48;;;19.30;99.90;;;;;;5022740;28;25134;-67
2022/07/27 11:39:25;;;;;;;3.08;1.50;;;19.30;99.90;;;;;;5042045;28;25089;-67
2022/07/27 11:41:56;;;;;;;3.55;1.10;;;19.30;99.90;;;;;;5030547;28;25074;-68
2022/07/27 11:44:21;;;;;;;3.05;1.25;;;19.40;99.90;;;;;;5025225;28;25142;-66
2022/07/27 11:46:48;;;;;;;1.10;0.98;;;19.50;99.90;;;;;;5039805;28;25091;-68
2022/07/27 11:49:16;;;;;;;2.63;1.35;;;19.70;99.90;;;;;;5030764;28;25101;-67
2022/07/27 11:51:47;;;;;;;6.07;1.27;;;19.90;99.90;;;;;;5023101;28;25152;-68
2022/07/27 11:54:24;;;;;;;4.03;1.20;;;20.00;99.90;;;;;;5026953;28;25059;-68
2022/07/27 11:56:56;;;;;;;4.38;1.30;;;19.90;99.90;;;;;;5024312;28;25079;-66
2022/07/27 11:59:23;;;;;;;;;;;20.00;99.90;;;;;;5027301;28;25157;-66
2022/07/27 12:01:54;;;;;;;8.05;1.38;;;19.70;99.90;;;;;;5028625;28;24081;-69
2022/07/27 12:04:33;;;;;;;5.18;1.42;;;19.70;99.90;;;;;;5033473;28;25064;-69
2022/07/27 12:07:15;;;;;;;4.95;1.35;;;19.70;99.90;;;;;;5031600;28;25158;-68
2022/07/27 12:09:45;;;;;;;5.50;1.60;;;19.50;99.90;;;;;;5037936;28;25075;-68
2022/07/27 12:12:19;;;;;;;6.60;1.60;;;19.70;99.90;;;;;;5032393;28;25074;-69
2022/07/27 12:14:49;;;;;;;8.15;1.55;;;19.80;99.90;;;;;;5029757;28;25138;-66
2022/07/27 12:17:34;;;;;;;3.55;1.30;;;20.00;99.90;;;;;;5029888;28;25105;-68
2022/07/27 12:20:05;;;;;;;2.47;1.20;;;20.10;99.90;;;;;;5029632;28;25149;-67
2022/07/27 12:22:45;;;;;;;4.80;1.35;;;20.10;99.90;;;;;;5027038;28;25075;-69
2022/07/27 12:25:17;;;;;;;5.25;1.33;;;20.20;99.90;;;;;;5039814;28;25076;-67
2022/07/27 12:27:59;;;;;;;5.07;1.23;;;20.60;99.90;;;;;;5028939;28;25073;-67
2022/07/27 12:30:38;;;;;;;2.88;1.38;;;20.50;99.20;;;;;;5030048;28;25059;-66
2022/07/27 12:33:07;;;;;;;9.38;1.95;;;20.70;97.90;;;;;;5029982;28;25057;-70
2022/07/27 12:35:44;;;;;;;3.92;1.30;;;21.00;95.70;;;;;;5030429;28;25072;-67
2022/07/27 12:38:09;;;;;;;5.03;1.50;;;21.00;95.10;;;;;;5029400;28;25068;-68
2022/07/27 12:40:54;;;;;;;3.63;1.25;;;21.30;96.00;;;;;;5038373;28;25141;-69
2022/07/27 12:43:24;;;;;;;3.45;1.25;;;21.00;93.70;;;;;;5028991;28;25049;-67
2022/07/27 12:45:52;;;;;;;6.43;1.40;;;20.90;94.50;;;;;;5028879;28;25059;-69
2022/07/27 12:48:36;;;;;;;5.47;1.52;;;21.20;93.80;;;;;;5038486;28;25131;-69
2022/07/27 12:51:04;;;;;;;7.20;1.15;;;21.40;93.40;;;;;;5025552;28;25105;-68
2022/07/27 12:53:31;;;;;;;3.08;1.65;;;21.40;91.30;;;;;;5035069;28;25079;-68
2022/07/27 12:56:00;;;;;;;2.75;1.48;;;21.50;89.30;;;;;;5025999;28;25106;-69